Baker, MT

8:45 PM MDT on October 24, 2014 (GMT -0600)
Baker Municipal | Change Station
CLOSE
Current Station
Airport
Location: Baker,
Elevation: 2972 ft
Nearby Weather Stations

Elev 2972 ft 46.35 °N, 104.26 °W | Updated 54 minutes ago

Partly Cloudy
Partly Cloudy
47 °F
Feels Like 47 °F
N
9
Wind Variable Wind from West

Today
High -- | Low -- °F
--% Chance of Precip.
Yesterday
High -- | Low -- °F
Precip. -- in
7:27 AM 5:54 PM
New Moon, 2% visible
Pressure 30.11 in
Visibility 10.0 miles
Clouds Few 11000 ft
Dew Point 28 °F
Humidity 48%
Rainfall 0.00 in
Snow Depth Not available.
UV 0 out of 12
Pollen 1.90 out of 12
Air Quality Not available.
Flu Activity No Activity
METAR KBHK 250151Z AUTO 26008KT 10SM FEW110 08/M02 A3009 RMK AO2 SLP196 T00831022

More Conditions Fewer Conditions

Pressure 30.11 in
Visibility 10.0 miles
Clouds Few 11000 ft
Dew Point 28 °F
Humidity 48%
Rainfall 0.00 in
Snow Depth Not available.
UV 0 out of 12
Pollen 1.90 out of 12
Air Quality Not available.
Flu Activity No Activity
METAR KBHK 250151Z AUTO 26008KT 10SM FEW110 08/M02 A3009 RMK AO2 SLP196 T00831022

More Conditions Fewer Conditions

10-Day Weather Forecast

Almanac

Astronomy

Oct. 24, 2014 Rise Set
Actual Time 7:27 AM MDT 5:54 PM MDT
Civil Twilight 6:56 AM MDT 6:25 PM MDT
Nautical Twilight 6:21 AM MDT 7:00 PM MDT
Astronomical Twilight 5:46 AM MDT 7:35 PM MDT
Moon 8:10 AM MDT (10/24) 6:33 PM MDT (10/24)
Length of Visible Light 11h 29m
Length of Day
10h 27m
Tomorrow will be 3m 4s shorter.
New Moon, 2% of the Moon is Illuminated
Today
New Moon
Oct 30
First Quarter
Nov 6
Full
Nov 14
Last Quarter
Nov 22
New

Today's Extremes

State Highs State Lows

Community

WunderPhotos

Upload Photos

1,764,760 photos uploaded!

Nearby

Snow Depth

Station Depth Elevation
Crystal Lake 1 in 6050 ft
Burnt Mountain 0 in 5880 ft
Fisher Creek 1 in 9100 ft
Northeast Entrance 0 in 7350 ft
South Fork Shields 1 in 8100 ft

Earthquake Activity

City Distance Mag. Time & Date
No recent earthquake activity has been reported nearby.
Minimum magnitude displayed is 2.5.

Coastal Water Temperatures

Place Temperature
No Stations Reporting

Nearby Weather Stations